Time;durP1;ratioP1;P1;durP2;ratioP2;P2;SDS_P1;SDS_P2;PMS_P1;PMS_P2;Temp;Humidity;BMP_temperature;BMP_pressure;BME280_temperature;BME280_humidity;BME280_pressure;Samples;Min_cycle;Max_cycle;Signal;HPM_P1;HPM_P2
2022/06/11 00:00:34;;;;;;;4.93;2.38;;;;;;;;;;5047769;28;20030;-55
2022/06/11 00:03:00;;;;;;;2.63;2.00;;;;;;;;;;5045454;28;20039;-56
2022/06/11 00:05:26;;;;;;;6.00;2.30;;;;;;;;;;5040057;28;20034;-55
2022/06/11 00:07:52;;;;;;;5.95;2.55;;;;;;;;;;5044403;28;20032;-55
2022/06/11 00:10:18;;;;;;;4.00;2.60;;;;;;;;;;5043065;28;20033;-55
2022/06/11 00:12:44;;;;;;;8.60;2.58;;;;;;;;;;5047250;28;20480;-55
2022/06/11 00:15:10;;;;;;;5.50;1.98;;;;;;;;;;5040330;28;20096;-54
2022/06/11 00:17:36;;;;;;;7.72;3.10;;;;;;;;;;5036809;28;20109;-55
2022/06/11 00:20:04;;;;;;;3.17;2.10;;;;;;;;;;5052371;28;20104;-56
2022/06/11 00:22:30;;;;;;;5.82;2.45;;;;;;;;;;5039657;28;20033;-55
2022/06/11 00:24:56;;;;;;;4.43;2.17;;;;;;;;;;5046928;28;20036;-56
2022/06/11 00:27:22;;;;;;;4.10;2.10;;;;;;;;;;5048809;28;20028;-54
2022/06/11 00:29:49;;;;;;;3.00;2.13;;;;;;;;;;5046371;28;20472;-53
2022/06/11 00:32:15;;;;;;;6.13;3.03;;;;;;;;;;5044332;28;20054;-56
2022/06/11 00:34:41;;;;;;;5.28;2.70;;;;;;;;;;5047680;28;20032;-55
2022/06/11 00:37:08;;;;;;;4.05;2.40;;;;;;;;;;5050393;28;20036;-54
2022/06/11 00:39:35;;;;;;;4.80;2.78;;;;;;;;;;5049536;28;20056;-55
2022/06/11 00:42:04;;;;;;;8.57;2.75;;;;;;;;;;5035743;28;20041;-56
2022/06/11 00:44:31;;;;;;;3.53;2.63;;;;;;;;;;5047826;28;20150;-54
2022/06/11 00:46:57;;;;;;;3.45;2.38;;;;;;;;;;5034239;28;20029;-55
2022/06/11 00:49:25;;;;;;;4.72;2.53;;;;;;;;;;5043325;28;20043;-55
2022/06/11 00:51:54;;;;;;;3.63;2.97;;;;;;;;;;5050662;28;20025;-55
2022/06/11 00:54:23;;;;;;;10.52;2.90;;;;;;;;;;5048263;28;20040;-56
2022/06/11 00:56:52;;;;;;;5.90;2.90;;;;;;;;;;5047255;28;20029;-55
2022/06/11 00:59:22;;;;;;;3.40;2.88;;;;;;;;;;5050118;28;20036;-55
2022/06/11 01:01:48;;;;;;;3.40;2.95;;;;;;;;;;5049337;28;20060;-54
2022/06/11 01:04:33;;;;;;;4.30;2.45;;;;;;;;;;5032483;28;20037;-55
2022/06/11 01:07:05;;;;;;;4.25;2.42;;;;;;;;;;5046305;28;20505;-54
2022/06/11 01:09:36;;;;;;;5.45;2.95;;;;;;;;;;5052454;28;20516;-54
2022/06/11 01:12:38;;;;;;;3.63;2.15;;;;;;;;;;5044648;28;20037;-56
2022/06/11 01:15:12;;;;;;;4.22;2.70;;;;;;;;;;4971268;28;20089;-55
2022/06/11 01:17:45;;;;;;;3.92;3.28;;;;;;;;;;5034652;28;20124;-56
2022/06/11 01:20:17;;;;;;;5.43;2.83;;;;;;;;;;5036199;28;20381;-55
2022/06/11 01:22:53;;;;;;;4.43;3.08;;;;;;;;;;5053144;28;20512;-56
2022/06/11 01:25:37;;;;;;;5.32;2.95;;;;;;;;;;5044668;28;20039;-56
2022/06/11 01:28:16;;;;;;;5.97;3.00;;;;;;;;;;5052390;28;20040;-56
2022/06/11 01:31:04;;;;;;;4.50;2.70;;;;;;;;;;5050549;28;20033;-56
2022/06/11 01:33:32;;;;;;;5.03;3.00;;;;;;;;;;5046103;28;20033;-55
2022/06/11 01:36:04;;;;;;;5.80;2.97;;;;;;;;;;5035801;28;20484;-56
2022/06/11 01:38:35;;;;;;;3.35;2.75;;;;;;;;;;5035985;28;20041;-56
2022/06/11 01:41:20;;;;;;;5.22;2.90;;;;;;;;;;5040222;28;20025;-56
2022/06/11 01:43:47;;;;;;;5.20;3.13;;;;;;;;;;5050922;28;20037;-56
2022/06/11 01:46:17;;;;;;;8.30;3.60;;;;;;;;;;5034096;28;20043;-56
2022/06/11 01:48:54;;;;;;;5.10;2.97;;;;;;;;;;5042673;28;20047;-56
2022/06/11 01:51:38;;;;;;;7.22;3.35;;;;;;;;;;5037972;28;20032;-55
2022/06/11 01:54:30;;;;;;;5.60;3.85;;;;;;;;;;5046005;28;20041;-56
2022/06/11 01:57:05;;;;;;;4.82;2.90;;;;;;;;;;5037607;28;20090;-55
2022/06/11 01:59:50;;;;;;;5.03;3.22;;;;;;;;;;5051430;28;20660;-56
2022/06/11 02:02:30;;;;;;;4.22;3.08;;;;;;;;;;5045025;28;20040;-55
2022/06/11 02:05:05;;;;;;;5.30;3.20;;;;;;;;;;5027457;28;20035;-55
2022/06/11 02:07:51;;;;;;;4.85;2.70;;;;;;;;;;5051724;28;20037;-55
2022/06/11 02:10:21;;;;;;;4.15;3.00;;;;;;;;;;5049894;28;20120;-56
2022/06/11 02:12:50;;;;;;;5.80;3.10;;;;;;;;;;5044870;28;20481;-55
2022/06/11 02:15:30;;;;;;;5.47;2.85;;;;;;;;;;5047993;28;20024;-56
2022/06/11 02:18:01;;;;;;;5.05;3.08;;;;;;;;;;5045781;28;20514;-56
2022/06/11 02:20:30;;;;;;;3.88;3.20;;;;;;;;;;5047550;28;20033;-56
2022/06/11 02:23:01;;;;;;;4.88;3.15;;;;;;;;;;5042021;28;20099;-55
2022/06/11 02:25:33;;;;;;;4.78;3.15;;;;;;;;;;5040166;28;20028;-56
2022/06/11 02:28:01;;;;;;;4.30;3.15;;;;;;;;;;5047842;28;20028;-55
2022/06/11 02:30:29;;;;;;;7.97;3.75;;;;;;;;;;5033925;28;20104;-54
2022/06/11 02:32:55;;;;;;;5.75;3.33;;;;;;;;;;5048079;28;20028;-55
2022/06/11 02:35:27;;;;;;;3.67;3.10;;;;;;;;;;5050266;28;20100;-54
2022/06/11 02:37:53;;;;;;;5.53;3.33;;;;;;;;;;5042190;28;20025;-56
2022/06/11 02:40:22;;;;;;;4.95;3.45;;;;;;;;;;5036280;28;20060;-55
2022/06/11 02:42:48;;;;;;;7.25;3.58;;;;;;;;;;5046009;28;20059;-55
2022/06/11 02:45:15;;;;;;;6.72;3.55;;;;;;;;;;5033644;28;20041;-55
2022/06/11 02:47:42;;;;;;;7.10;3.65;;;;;;;;;;5039500;28;20029;-56
2022/06/11 02:50:08;;;;;;;5.65;3.53;;;;;;;;;;5043661;28;20039;-56
2022/06/11 02:52:34;;;;;;;3.38;2.80;;;;;;;;;;5049399;28;20039;-55
2022/06/11 02:55:01;;;;;;;6.95;3.15;;;;;;;;;;5048688;28;20044;-55
2022/06/11 02:57:29;;;;;;;6.43;3.38;;;;;;;;;;5044336;28;20032;-55
2022/06/11 02:59:56;;;;;;;4.15;3.17;;;;;;;;;;5048971;28;20753;-55
2022/06/11 03:02:23;;;;;;;5.97;3.85;;;;;;;;;;5039975;28;20029;-56
2022/06/11 03:04:49;;;;;;;4.28;3.33;;;;;;;;;;5021946;28;20092;-55
2022/06/11 03:07:15;;;;;;;5.32;3.70;;;;;;;;;;5047018;28;20104;-58
2022/06/11 03:09:41;;;;;;;7.03;3.78;;;;;;;;;;5048541;28;20055;-55
2022/06/11 03:12:08;;;;;;;6.57;3.60;;;;;;;;;;5039504;28;20033;-55
2022/06/11 03:14:34;;;;;;;6.55;3.80;;;;;;;;;;5043862;28;20778;-55
2022/06/11 03:17:01;;;;;;;4.38;3.47;;;;;;;;;;5040310;28;20056;-55
2022/06/11 03:19:27;;;;;;;5.13;3.35;;;;;;;;;;5051183;28;20056;-53
2022/06/11 03:21:54;;;;;;;4.40;3.55;;;;;;;;;;5042927;28;20057;-54
2022/06/11 03:24:21;;;;;;;5.25;3.08;;;;;;;;;;5040502;28;20034;-52
2022/06/11 03:26:47;;;;;;;5.32;3.55;;;;;;;;;;5048861;28;20082;-55
2022/06/11 03:29:15;;;;;;;4.68;3.00;;;;;;;;;;5042623;28;20040;-54
2022/06/11 03:31:41;;;;;;;5.90;3.55;;;;;;;;;;5032602;28;20048;-54
2022/06/11 03:34:07;;;;;;;3.67;2.97;;;;;;;;;;5029706;28;20048;-54
2022/06/11 03:36:33;;;;;;;5.55;3.40;;;;;;;;;;5050144;28;20029;-53
2022/06/11 03:38:59;;;;;;;6.25;3.47;;;;;;;;;;5042675;28;20421;-55
2022/06/11 03:41:25;;;;;;;5.75;3.60;;;;;;;;;;5044006;28;20024;-55
2022/06/11 03:43:51;;;;;;;5.03;3.33;;;;;;;;;;5041906;28;20041;-55
2022/06/11 03:46:18;;;;;;;6.80;3.70;;;;;;;;;;5040098;28;20044;-53
2022/06/11 03:48:44;;;;;;;5.70;3.38;;;;;;;;;;5044461;28;20029;-55
2022/06/11 03:51:11;;;;;;;4.10;3.40;;;;;;;;;;5046202;28;20033;-54
2022/06/11 03:53:37;;;;;;;4.28;3.17;;;;;;;;;;5012005;28;20034;-53
2022/06/11 03:56:05;;;;;;;4.70;3.10;;;;;;;;;;5040533;28;20112;-55
2022/06/11 03:58:32;;;;;;;11.93;3.72;;;;;;;;;;5034297;28;20443;-55
2022/06/11 04:01:16;;;;;;;4.82;3.50;;;;;;;;;;5045674;28;20030;-56
2022/06/11 04:03:49;;;;;;;6.50;3.45;;;;;;;;;;5047124;28;20515;-55
2022/06/11 04:06:15;;;;;;;;;;;;;;;;;;5038599;28;20122;-53
2022/06/11 04:08:41;;;;;;;6.55;3.65;;;;;;;;;;5045558;28;20406;-55
2022/06/11 04:11:07;;;;;;;5.32;3.80;;;;;;;;;;5043769;28;20029;-54
2022/06/11 04:13:34;;;;;;;4.32;3.22;;;;;;;;;;5036893;28;20038;-55
2022/06/11 04:16:01;;;;;;;5.25;3.20;;;;;;;;;;5043286;28;20099;-55
2022/06/11 04:18:33;;;;;;;5.50;3.05;;;;;;;;;;5038654;28;20035;-54
2022/06/11 04:21:00;;;;;;;4.43;3.42;;;;;;;;;;5041957;28;20476;-55
2022/06/11 04:23:29;;;;;;;3.92;3.25;;;;;;;;;;5046648;28;20033;-55
2022/06/11 04:25:56;;;;;;;5.90;3.67;;;;;;;;;;5047286;28;20503;-55
2022/06/11 04:28:23;;;;;;;6.05;3.55;;;;;;;;;;5042941;28;20094;-54
2022/06/11 04:30:49;;;;;;;5.50;3.35;;;;;;;;;;5039320;28;20697;-55
2022/06/11 04:33:14;;;;;;;5.15;3.20;;;;;;;;;;5045982;28;20029;-55
2022/06/11 04:35:40;;;;;;;6.25;2.90;;;;;;;;;;5042924;28;20090;-54
2022/06/11 04:38:07;;;;;;;4.68;3.30;;;;;;;;;;5046181;28;20076;-55
2022/06/11 04:40:33;;;;;;;5.13;3.05;;;;;;;;;;5046458;28;20072;-55
2022/06/11 04:42:59;;;;;;;4.18;3.17;;;;;;;;;;5052047;28;20056;-55
2022/06/11 04:45:25;;;;;;;4.85;3.08;;;;;;;;;;5043918;28;20034;-55
2022/06/11 04:47:51;;;;;;;5.82;3.25;;;;;;;;;;5048018;28;20504;-54
2022/06/11 04:50:18;;;;;;;5.90;3.70;;;;;;;;;;5041241;28;20036;-54
2022/06/11 04:52:44;;;;;;;5.97;3.67;;;;;;;;;;5051425;28;20514;-55
2022/06/11 04:55:10;;;;;;;5.10;3.75;;;;;;;;;;5042378;28;20021;-55
2022/06/11 04:57:36;;;;;;;5.40;2.95;;;;;;;;;;5046252;28;20031;-55
2022/06/11 05:00:04;;;;;;;3.33;2.60;;;;;;;;;;5044268;28;20035;-55
2022/06/11 05:02:30;;;;;;;7.82;3.50;;;;;;;;;;5060506;28;20135;-55
2022/06/11 05:04:56;;;;;;;5.45;3.25;;;;;;;;;;5052704;28;20055;-55
2022/06/11 05:07:22;;;;;;;7.30;2.85;;;;;;;;;;5053079;28;20126;-55
2022/06/11 05:09:49;;;;;;;4.85;3.03;;;;;;;;;;5038170;28;20048;-54
2022/06/11 05:12:15;;;;;;;5.70;2.97;;;;;;;;;;5049745;28;20029;-55
2022/06/11 05:14:41;;;;;;;7.15;2.97;;;;;;;;;;5055280;28;20032;-54
2022/06/11 05:17:08;;;;;;;4.20;2.72;;;;;;;;;;5050503;28;20048;-55
2022/06/11 05:19:34;;;;;;;3.30;2.67;;;;;;;;;;5047764;28;20503;-54
2022/06/11 05:22:00;;;;;;;3.95;2.40;;;;;;;;;;5051423;28;20484;-56
2022/06/11 05:24:29;;;;;;;4.25;2.72;;;;;;;;;;5050330;28;20464;-56
2022/06/11 05:26:57;;;;;;;5.45;2.80;;;;;;;;;;5033418;28;20093;-55
2022/06/11 05:29:34;;;;;;;6.05;2.78;;;;;;;;;;5047222;28;20033;-56
2022/06/11 05:32:01;;;;;;;4.38;2.88;;;;;;;;;;5051460;28;20048;-55
2022/06/11 05:34:27;;;;;;;4.60;2.60;;;;;;;;;;5038173;28;20333;-52
2022/06/11 05:36:54;;;;;;;4.72;2.88;;;;;;;;;;5039781;28;20029;-55
2022/06/11 05:39:20;;;;;;;4.90;2.63;;;;;;;;;;5050227;28;20035;-55
2022/06/11 05:41:46;;;;;;;4.95;3.10;;;;;;;;;;5046863;28;20061;-54
2022/06/11 05:44:12;;;;;;;5.60;2.60;;;;;;;;;;5050319;28;20057;-56
2022/06/11 05:46:38;;;;;;;3.35;2.72;;;;;;;;;;5043680;28;20036;-56
2022/06/11 05:49:07;;;;;;;4.82;3.10;;;;;;;;;;5037410;28;20041;-56
2022/06/11 05:51:34;;;;;;;4.72;2.50;;;;;;;;;;5052576;28;20072;-55
2022/06/11 05:54:02;;;;;;;4.93;2.40;;;;;;;;;;5048567;28;20544;-55
2022/06/11 05:56:28;;;;;;;4.18;2.15;;;;;;;;;;5025280;28;20031;-55
2022/06/11 05:58:56;;;;;;;5.47;3.00;;;;;;;;;;5047807;28;20075;-55
2022/06/11 06:01:25;;;;;;;4.18;2.25;;;;;;;;;;5035062;28;20021;-55
2022/06/11 06:03:51;;;;;;;3.13;2.15;;;;;;;;;;5046129;28;20031;-55
2022/06/11 06:06:17;;;;;;;5.65;2.25;;;;;;;;;;5034857;28;20027;-55
2022/06/11 06:08:44;;;;;;;3.63;2.00;;;;;;;;;;5032415;28;20053;-53
2022/06/11 06:11:10;;;;;;;3.20;2.05;;;;;;;;;;5031738;28;20064;-54
2022/06/11 06:13:45;;;;;;;5.82;2.53;;;;;;;;;;5035555;28;20175;-56
2022/06/11 06:16:11;;;;;;;4.57;2.08;;;;;;;;;;5049177;28;20469;-55
2022/06/11 06:18:38;;;;;;;4.35;1.98;;;;;;;;;;5046535;28;20020;-57
2022/06/11 06:21:04;;;;;;;6.82;1.75;;;;;;;;;;5025143;28;20061;-56
2022/06/11 06:23:34;;;;;;;4.68;2.03;;;;;;;;;;5044121;28;20037;-56
2022/06/11 06:26:00;;;;;;;2.55;1.73;;;;;;;;;;5040841;28;21025;-56
2022/06/11 06:28:26;;;;;;;4.03;2.17;;;;;;;;;;5043614;28;20045;-55
2022/06/11 06:30:52;;;;;;;2.53;1.65;;;;;;;;;;5031382;28;20399;-54
2022/06/11 06:33:18;;;;;;;4.00;1.73;;;;;;;;;;5039889;28;20078;-55
2022/06/11 06:35:44;;;;;;;3.83;1.83;;;;;;;;;;5037716;28;20473;-56
2022/06/11 06:38:10;;;;;;;3.03;1.40;;;;;;;;;;5049534;28;20403;-56
2022/06/11 06:40:36;;;;;;;4.97;1.60;;;;;;;;;;5037539;28;20083;-55
2022/06/11 06:43:03;;;;;;;2.72;1.50;;;;;;;;;;5048701;28;20039;-56
2022/06/11 06:45:29;;;;;;;4.00;1.67;;;;;;;;;;5041859;28;20033;-55
2022/06/11 06:47:55;;;;;;;3.25;1.70;;;;;;;;;;5051565;28;20028;-56
2022/06/11 06:50:22;;;;;;;4.68;1.90;;;;;;;;;;5050869;28;20499;-55
2022/06/11 06:52:48;;;;;;;3.53;2.05;;;;;;;;;;5053458;28;20091;-56
2022/06/11 06:55:14;;;;;;;4.63;1.98;;;;;;;;;;5034990;28;20025;-56
2022/06/11 06:57:40;;;;;;;6.13;1.83;;;;;;;;;;5047559;28;20112;-55
2022/06/11 07:00:07;;;;;;;6.78;1.60;;;;;;;;;;5045546;28;20473;-53
2022/06/11 07:02:33;;;;;;;2.50;1.50;;;;;;;;;;5043381;28;20055;-56
2022/06/11 07:04:59;;;;;;;5.28;1.80;;;;;;;;;;5049649;28;20025;-55
2022/06/11 07:07:25;;;;;;;6.10;2.38;;;;;;;;;;5036404;28;20091;-55
2022/06/11 07:09:53;;;;;;;3.67;1.85;;;;;;;;;;5042152;28;20489;-56
2022/06/11 07:12:18;;;;;;;4.32;1.73;;;;;;;;;;5046370;28;20025;-56
2022/06/11 07:14:44;;;;;;;4.18;1.58;;;;;;;;;;5034386;28;20040;-55
2022/06/11 07:17:11;;;;;;;4.82;1.52;;;;;;;;;;5047123;28;20021;-55
2022/06/11 07:19:43;;;;;;;1.65;1.30;;;;;;;;;;5049397;28;20025;-55
2022/06/11 07:22:15;;;;;;;4.95;1.70;;;;;;;;;;5043291;28;20104;-56
2022/06/11 07:24:41;;;;;;;4.60;1.33;;;;;;;;;;5036572;28;20034;-56
2022/06/11 07:27:10;;;;;;;4.05;1.30;;;;;;;;;;5047458;28;20079;-53
2022/06/11 07:29:42;;;;;;;2.03;1.40;;;;;;;;;;5046895;28;20058;-53
2022/06/11 07:32:13;;;;;;;5.97;1.42;;;;;;;;;;5042827;28;20034;-55
2022/06/11 07:34:39;;;;;;;1.58;1.10;;;;;;;;;;5037391;28;20031;-56
2022/06/11 07:37:06;;;;;;;2.70;1.40;;;;;;;;;;5023603;28;20047;-56
2022/06/11 07:39:32;;;;;;;3.10;1.23;;;;;;;;;;5039771;28;20256;-55
2022/06/11 07:41:58;;;;;;;3.67;1.55;;;;;;;;;;5043142;28;20032;-56
2022/06/11 07:44:24;;;;;;;5.13;1.60;;;;;;;;;;5029762;28;20033;-56
2022/06/11 07:46:50;;;;;;;5.60;1.10;;;;;;;;;;5033911;28;20104;-55
2022/06/11 07:49:15;;;;;;;3.30;1.45;;;;;;;;;;5037106;28;20749;-56
2022/06/11 07:51:41;;;;;;;3.08;1.13;;;;;;;;;;5045538;28;20474;-55
2022/06/11 07:54:07;;;;;;;3.47;1.20;;;;;;;;;;5047728;28;20040;-55
2022/06/11 07:56:33;;;;;;;4.50;1.30;;;;;;;;;;5035162;28;20056;-54
2022/06/11 07:58:59;;;;;;;2.78;1.40;;;;;;;;;;5040543;28;20489;-55
2022/06/11 08:01:25;;;;;;;4.18;1.42;;;;;;;;;;5029677;28;20025;-55
2022/06/11 08:03:51;;;;;;;5.15;1.40;;;;;;;;;;5049303;28;20033;-58
2022/06/11 08:06:17;;;;;;;4.53;1.20;;;;;;;;;;5030738;28;20037;-58
2022/06/11 08:08:45;;;;;;;2.63;1.20;;;;;;;;;;5050012;28;20052;-56
2022/06/11 08:11:11;;;;;;;2.88;1.13;;;;;;;;;;5052145;28;20052;-55
2022/06/11 08:13:37;;;;;;;2.95;1.10;;;;;;;;;;5048012;28;20472;-54
2022/06/11 08:16:03;;;;;;;2.40;1.27;;;;;;;;;;5048236;28;20033;-56
2022/06/11 08:18:31;;;;;;;4.05;1.40;;;;;;;;;;5045047;28;20047;-54
2022/06/11 08:20:57;;;;;;;5.05;1.30;;;;;;;;;;5051152;28;20109;-57
2022/06/11 08:23:24;;;;;;;5.30;1.02;;;;;;;;;;5049982;28;20037;-55
2022/06/11 08:25:50;;;;;;;5.20;1.27;;;;;;;;;;5042329;28;20392;-56
2022/06/11 08:28:17;;;;;;;4.50;1.15;;;;;;;;;;5045805;28;20029;-57
2022/06/11 08:30:43;;;;;;;3.78;1.17;;;;;;;;;;5039513;28;20057;-57
2022/06/11 08:33:09;;;;;;;2.67;1.05;;;;;;;;;;5051055;28;20036;-57
2022/06/11 08:35:35;;;;;;;3.53;1.38;;;;;;;;;;5038467;28;20021;-57
2022/06/11 08:38:02;;;;;;;1.98;0.85;;;;;;;;;;5049269;28;20024;-57
2022/06/11 08:40:36;;;;;;;2.95;0.95;;;;;;;;;;5056620;28;20490;-57
2022/06/11 08:43:15;;;;;;;1.77;0.88;;;;;;;;;;5053024;28;20033;-55
2022/06/11 08:45:46;;;;;;;3.10;0.90;;;;;;;;;;5045476;28;20033;-57
2022/06/11 08:48:15;;;;;;;1.90;0.77;;;;;;;;;;5049308;28;20465;-56
2022/06/11 08:50:48;;;;;;;2.20;0.90;;;;;;;;;;5052570;28;20112;-56
2022/06/11 08:53:14;;;;;;;;;;;;;;;;;;5042326;28;20043;-54
2022/06/11 08:55:40;;;;;;;3.30;0.90;;;;;;;;;;5051524;28;19909;-57
2022/06/11 08:58:20;;;;;;;4.70;1.33;;;;;;;;;;5048557;28;20109;-57
2022/06/11 09:00:52;;;;;;;2.78;0.98;;;;;;;;;;5048608;28;20022;-56
2022/06/11 09:03:27;;;;;;;4.80;1.92;;;;;;;;;;5049962;28;20033;-57
2022/06/11 09:06:03;;;;;;;3.20;0.93;;;;;;;;;;5039217;28;20116;-56
2022/06/11 09:08:35;;;;;;;3.10;0.75;;;;;;;;;;5040991;28;20041;-57
2022/06/11 09:11:31;;;;;;;4.22;1.33;;;;;;;;;;5045942;28;20033;-59
2022/06/11 09:14:09;;;;;;;5.07;1.00;;;;;;;;;;5021393;28;20518;-58
2022/06/11 09:16:58;;;;;;;2.55;0.93;;;;;;;;;;5049789;28;20469;-59
2022/06/11 09:19:24;;;;;;;2.75;0.47;;;;;;;;;;5051694;28;20108;-58
2022/06/11 09:21:56;;;;;;;4.28;0.93;;;;;;;;;;5057220;28;20130;-58
2022/06/11 09:24:29;;;;;;;3.33;1.00;;;;;;;;;;5040230;28;20033;-58
2022/06/11 09:27:00;;;;;;;3.47;1.40;;;;;;;;;;5041721;28;20025;-58
2022/06/11 09:29:30;;;;;;;5.80;0.90;;;;;;;;;;5045416;28;20021;-59
2022/06/11 09:32:25;;;;;;;3.80;1.02;;;;;;;;;;5038230;28;20148;-59
2022/06/11 09:34:53;;;;;;;2.42;0.80;;;;;;;;;;5019079;28;20094;-60
2022/06/11 09:37:28;;;;;;;1.00;0.70;;;;;;;;;;5045214;28;20036;-59
2022/06/11 09:39:57;;;;;;;1.00;0.63;;;;;;;;;;5049715;28;20026;-59
2022/06/11 09:42:38;;;;;;;1.08;0.57;;;;;;;;;;5043725;28;20314;-59
2022/06/11 09:45:23;;;;;;;6.07;0.70;;;;;;;;;;5044901;28;20036;-59
2022/06/11 09:48:04;;;;;;;2.45;0.73;;;;;;;;;;5040794;28;20025;-59
2022/06/11 09:50:49;;;;;;;5.28;0.70;;;;;;;;;;5052497;28;20032;-60
2022/06/11 09:53:17;;;;;;;3.03;0.60;;;;;;;;;;5032317;28;20026;-58
2022/06/11 09:55:56;;;;;;;1.90;0.70;;;;;;;;;;5040554;28;20558;-59
2022/06/11 09:58:22;;;;;;;2.03;0.80;;;;;;;;;;5055264;28;20063;-59
2022/06/11 10:00:54;;;;;;;1.38;0.50;;;;;;;;;;5057262;28;20021;-58
2022/06/11 10:03:35;;;;;;;1.95;0.63;;;;;;;;;;5060402;28;20091;-56
2022/06/11 10:06:07;;;;;;;2.17;0.90;;;;;;;;;;5052575;28;20533;-57
2022/06/11 10:08:39;;;;;;;1.45;0.57;;;;;;;;;;5046194;28;20052;-58
2022/06/11 10:11:06;;;;;;;2.17;0.70;;;;;;;;;;5053060;28;20496;-59
2022/06/11 10:13:43;;;;;;;1.20;0.70;;;;;;;;;;5055443;28;20073;-59
2022/06/11 10:16:16;;;;;;;0.90;0.50;;;;;;;;;;5060558;28;20499;-59
2022/06/11 10:18:42;;;;;;;4.10;0.80;;;;;;;;;;5055217;28;20035;-59
2022/06/11 10:21:13;;;;;;;2.58;0.73;;;;;;;;;;5066777;28;20370;-59
2022/06/11 10:23:43;;;;;;;7.40;0.95;;;;;;;;;;5035214;28;20032;-59
2022/06/11 10:26:30;;;;;;;0.98;0.40;;;;;;;;;;5053292;28;20571;-59
2022/06/11 10:29:04;;;;;;;2.13;0.65;;;;;;;;;;5046238;28;20029;-57
2022/06/11 10:31:48;;;;;;;1.85;0.77;;;;;;;;;;5037820;28;20074;-57
2022/06/11 10:34:14;;;;;;;;;;;;;;;;;;5038895;28;20092;-58
2022/06/11 10:36:44;;;;;;;6.05;1.13;;;;;;;;;;5047496;28;19952;-56
2022/06/11 10:39:31;;;;;;;42.30;5.80;;;;;;;;;;5050783;28;20032;-59
2022/06/11 10:42:08;;;;;;;1.25;0.68;;;;;;;;;;5051778;28;20028;-59
2022/06/11 10:44:37;;;;;;;4.75;0.90;;;;;;;;;;5053534;28;20132;-57
2022/06/11 10:47:16;;;;;;;6.95;1.30;;;;;;;;;;5051374;28;20774;-58
2022/06/11 10:49:42;;;;;;;3.72;0.90;;;;;;;;;;5044873;28;20021;-58
2022/06/11 10:52:17;;;;;;;5.90;0.70;;;;;;;;;;5045301;28;20576;-59
2022/06/11 10:54:43;;;;;;;3.13;0.63;;;;;;;;;;5028549;28;20045;-59
2022/06/11 10:57:35;;;;;;;2.92;0.80;;;;;;;;;;5040778;28;20024;-59
2022/06/11 11:00:14;;;;;;;4.05;1.10;;;;;;;;;;5030084;28;20090;-59
2022/06/11 11:02:51;;;;;;;1.83;0.65;;;;;;;;;;5047898;28;20029;-58
2022/06/11 11:05:21;;;;;;;1.05;0.50;;;;;;;;;;5043567;28;20029;-58
2022/06/11 11:07:56;;;;;;;2.30;0.52;;;;;;;;;;5048080;28;20419;-57
2022/06/11 11:10:22;;;;;;;0.65;0.30;;;;;;;;;;5045510;28;20040;-58
2022/06/11 11:12:50;;;;;;;3.10;0.43;;;;;;;;;;5061900;28;20021;-57
2022/06/11 11:15:18;;;;;;;6.47;0.50;;;;;;;;;;5032066;28;20128;-58
2022/06/11 11:17:49;;;;;;;3.90;0.52;;;;;;;;;;5042846;28;20052;-58
2022/06/11 11:20:30;;;;;;;2.33;0.77;;;;;;;;;;5044511;28;20623;-58
2022/06/11 11:22:58;;;;;;;3.13;0.52;;;;;;;;;;5042500;28;20033;-58
2022/06/11 11:25:33;;;;;;;1.77;0.40;;;;;;;;;;5059501;28;20464;-57
2022/06/11 11:27:59;;;;;;;1.17;0.40;;;;;;;;;;5049949;28;20025;-57
2022/06/11 11:30:36;;;;;;;1.55;0.50;;;;;;;;;;5034409;28;20028;-57
2022/06/11 11:33:23;;;;;;;4.30;0.75;;;;;;;;;;5043551;28;21876;-58
2022/06/11 11:35:49;;;;;;;2.15;0.55;;;;;;;;;;5034850;28;21007;-58
2022/06/11 11:38:17;;;;;;;1.27;0.57;;;;;;;;;;5040286;28;20674;-58
2022/06/11 11:40:49;;;;;;;4.63;0.55;;;;;;;;;;5039321;28;20408;-58
2022/06/11 11:43:16;;;;;;;6.18;0.77;;;;;;;;;;5044846;28;20456;-58
2022/06/11 11:45:58;;;;;;;2.22;0.50;;;;;;;;;;5042513;28;20028;-57
2022/06/11 11:48:24;;;;;;;4.90;0.90;;;;;;;;;;5031797;28;20035;-57
2022/06/11 11:50:54;;;;;;;2.95;0.90;;;;;;;;;;5040277;28;20049;-57
2022/06/11 11:53:22;;;;;;;5.10;0.98;;;;;;;;;;5015463;28;20516;-58
2022/06/11 11:56:02;;;;;;;1.90;0.70;;;;;;;;;;5040743;28;20025;-58
2022/06/11 11:58:27;;;;;;;2.70;0.63;;;;;;;;;;5042852;28;20061;-58
2022/06/11 12:00:55;;;;;;;3.38;1.10;;;;;;;;;;5028942;28;20029;-58
2022/06/11 12:03:30;;;;;;;3.17;1.00;;;;;;;;;;5034912;28;20021;-58
2022/06/11 12:05:58;;;;;;;3.83;1.55;;;;;;;;;;5048875;28;20151;-57
2022/06/11 12:08:28;;;;;;;2.55;0.80;;;;;;;;;;5044108;28;20049;-58
2022/06/11 12:10:57;;;;;;;5.63;1.13;;;;;;;;;;5030716;28;20048;-58
2022/06/11 12:13:26;;;;;;;2.45;0.82;;;;;;;;;;5032899;28;20087;-58
2022/06/11 12:15:53;;;;;;;3.13;1.13;;;;;;;;;;5044500;28;20048;-57
2022/06/11 12:18:21;;;;;;;3.15;1.17;;;;;;;;;;5035067;28;20025;-57
2022/06/11 12:20:51;;;;;;;2.47;1.38;;;;;;;;;;5048180;28;20017;-58
2022/06/11 12:23:22;;;;;;;7.13;1.10;;;;;;;;;;5036913;28;20041;-58
2022/06/11 12:25:56;;;;;;;3.28;1.20;;;;;;;;;;5037955;28;20147;-58
2022/06/11 12:28:24;;;;;;;3.50;0.90;;;;;;;;;;5048894;28;20025;-58
2022/06/11 12:30:50;;;;;;;3.20;1.00;;;;;;;;;;5028061;28;20474;-59
2022/06/11 12:33:17;;;;;;;1.33;0.82;;;;;;;;;;5036683;28;20032;-59
2022/06/11 12:35:53;;;;;;;1.80;0.88;;;;;;;;;;5041109;28;20010;-56
2022/06/11 12:38:32;;;;;;;7.30;1.27;;;;;;;;;;5048341;28;20031;-59
2022/06/11 12:41:17;;;;;;;3.63;0.93;;;;;;;;;;5051759;28;20021;-56
2022/06/11 12:44:02;;;;;;;2.92;0.88;;;;;;;;;;5046441;28;20025;-58
2022/06/11 12:46:44;;;;;;;2.35;0.88;;;;;;;;;;5048131;28;20047;-57
2022/06/11 12:49:21;;;;;;;2.58;1.05;;;;;;;;;;5031096;28;20029;-58
2022/06/11 12:52:01;;;;;;;4.20;1.00;;;;;;;;;;5037001;28;20353;-57
2022/06/11 12:54:42;;;;;;;4.15;1.08;;;;;;;;;;5044093;28;20028;-57
2022/06/11 12:57:28;;;;;;;2.88;1.02;;;;;;;;;;5048885;28;20494;-57
2022/06/11 12:59:58;;;;;;;6.75;0.90;;;;;;;;;;5039475;28;20029;-58
2022/06/11 13:02:27;;;;;;;2.47;0.98;;;;;;;;;;5041562;28;20100;-58
2022/06/11 13:05:12;;;;;;;3.30;0.88;;;;;;;;;;5044946;28;20074;-59
2022/06/11 13:08:05;;;;;;;1.65;0.80;;;;;;;;;;5053330;28;20036;-57
2022/06/11 13:10:39;;;;;;;3.42;1.33;;;;;;;;;;5044468;28;20521;-58
2022/06/11 13:13:26;;;;;;;3.47;1.23;;;;;;;;;;5043139;28;20503;-59
2022/06/11 13:15:55;;;;;;;1.73;0.80;;;;;;;;;;5032970;28;20013;-58
2022/06/11 13:18:26;;;;;;;3.80;1.08;;;;;;;;;;5046867;28;20060;-58
2022/06/11 13:21:00;;;;;;;2.10;1.00;;;;;;;;;;5042681;28;20029;-58
2022/06/11 13:23:29;;;;;;;2.17;0.85;;;;;;;;;;5034466;28;20545;-58
2022/06/11 13:26:02;;;;;;;2.05;1.05;;;;;;;;;;5042295;28;20028;-59
2022/06/11 13:28:36;;;;;;;2.95;1.00;;;;;;;;;;5041728;28;20029;-59
2022/06/11 13:31:11;;;;;;;1.55;0.52;;;;;;;;;;5044437;28;20115;-58
2022/06/11 13:33:56;;;;;;;1.90;0.88;;;;;;;;;;5051742;28;20479;-59
2022/06/11 13:36:28;;;;;;;0.95;0.50;;;;;;;;;;5047487;28;20113;-59
2022/06/11 13:39:06;;;;;;;3.05;0.30;;;;;;;;;;5045778;28;20511;-59
2022/06/11 13:41:54;;;;;;;1.52;0.40;;;;;;;;;;5037959;28;20029;-59
2022/06/11 13:44:38;;;;;;;2.50;0.45;;;;;;;;;;5041349;28;20116;-58
2022/06/11 13:47:23;;;;;;;0.52;0.30;;;;;;;;;;5039945;28;20033;-58
2022/06/11 13:50:00;;;;;;;1.70;0.40;;;;;;;;;;5047515;28;20025;-58
2022/06/11 13:55:17;;;;;;;1.73;0.47;;;;;;;;;;5047772;28;20041;-59
2022/06/11 13:57:49;;;;;;;0.75;0.20;;;;;;;;;;5044079;28;20040;-59
2022/06/11 14:00:27;;;;;;;1.42;0.30;;;;;;;;;;5051137;28;20029;-59
2022/06/11 14:03:12;;;;;;;0.50;0.20;;;;;;;;;;5027207;28;20112;-59
2022/06/11 14:05:44;;;;;;;0.52;0.10;;;;;;;;;;5052415;28;20536;-59
2022/06/11 14:08:10;;;;;;;0.82;0.30;;;;;;;;;;5052499;28;20060;-58
2022/06/11 14:10:38;;;;;;;2.72;0.28;;;;;;;;;;5051712;28;20032;-59
2022/06/11 14:13:06;;;;;;;1.80;0.35;;;;;;;;;;5043677;28;20032;-59
2022/06/11 14:15:32;;;;;;;0.98;0.30;;;;;;;;;;5040077;28;20033;-57
2022/06/11 14:17:58;;;;;;;1.33;0.38;;;;;;;;;;5049904;28;20033;-57
2022/06/11 14:20:26;;;;;;;0.82;0.30;;;;;;;;;;5047853;28;20424;-59
2022/06/11 14:22:59;;;;;;;2.10;0.47;;;;;;;;;;5050789;28;20382;-55
2022/06/11 14:25:37;;;;;;;1.02;0.20;;;;;;;;;;5040626;28;20717;-57
2022/06/11 14:28:15;;;;;;;1.00;0.40;;;;;;;;;;5038869;28;20380;-55
2022/06/11 14:30:41;;;;;;;1.83;0.30;;;;;;;;;;5040633;28;20029;-57
2022/06/11 14:33:13;;;;;;;1.15;0.45;;;;;;;;;;5048107;28;20032;-56
2022/06/11 14:35:48;;;;;;;2.33;0.40;;;;;;;;;;5048634;28;20029;-55
2022/06/11 14:38:29;;;;;;;1.15;0.40;;;;;;;;;;5052101;28;20547;-58
2022/06/11 14:41:07;;;;;;;1.65;0.50;;;;;;;;;;5037556;28;20032;-59
2022/06/11 14:43:52;;;;;;;1.92;0.50;;;;;;;;;;5051834;28;20500;-57
2022/06/11 14:46:30;;;;;;;1.08;0.45;;;;;;;;;;5038344;28;20020;-59
2022/06/11 14:48:57;;;;;;;0.95;0.40;;;;;;;;;;5051658;28;20032;-58
2022/06/11 14:51:24;;;;;;;1.10;0.40;;;;;;;;;;5016064;28;20508;-59
2022/06/11 14:54:08;;;;;;;1.17;0.70;;;;;;;;;;5039080;28;20060;-59
2022/06/11 14:56:46;;;;;;;0.82;0.40;;;;;;;;;;5051497;28;20029;-58
2022/06/11 14:59:37;;;;;;;0.60;0.22;;;;;;;;;;5051610;28;20040;-58
2022/06/11 15:02:29;;;;;;;0.77;0.40;;;;;;;;;;5050750;28;20120;-59
2022/06/11 15:05:00;;;;;;;1.02;0.50;;;;;;;;;;5008095;28;20548;-59
2022/06/11 15:07:26;;;;;;;1.70;0.30;;;;;;;;;;5044353;28;20072;-59